sensor_id;sensor_type;location;lat;lon;timestamp;pressure;altitude;pressure_sealevel;temperature;humidity
63715;BME280;49858;48.956;9.076;2023-02-15T00:02:03;100135.44;;;2.77;100.00
63715;BME280;49858;48.956;9.076;2023-02-15T00:04:32;100132.19;;;2.86;100.00
63715;BME280;49858;48.956;9.076;2023-02-15T00:07:18;100121.84;;;3.33;100.00
63715;BME280;49858;48.956;9.076;2023-02-15T00:09:46;100115.34;;;3.09;100.00
63715;BME280;49858;48.956;9.076;2023-02-15T00:12:15;100113.44;;;3.04;100.00
63715;BME280;49858;48.956;9.076;2023-02-15T00:14:43;100108.56;;;3.12;100.00
63715;BME280;49858;48.956;9.076;2023-02-15T00:17:11;100102.31;;;3.11;100.00
63715;BME280;49858;48.956;9.076;2023-02-15T00:19:40;100110.44;;;3.01;100.00
63715;BME280;49858;48.956;9.076;2023-02-15T00:22:08;100099.56;;;2.80;100.00
63715;BME280;49858;48.956;9.076;2023-02-15T00:24:36;100105.00;;;2.65;100.00
63715;BME280;49858;48.956;9.076;2023-02-15T00:27:04;100099.84;;;3.10;100.00
63715;BME280;49858;48.956;9.076;2023-02-15T00:29:32;100100.66;;;3.05;100.00
63715;BME280;49858;48.956;9.076;2023-02-15T00:31:59;100100.91;;;3.44;100.00
63715;BME280;49858;48.956;9.076;2023-02-15T00:34:27;100102.28;;;3.37;100.00
63715;BME280;49858;48.956;9.076;2023-02-15T00:36:57;100104.47;;;3.09;100.00
63715;BME280;49858;48.956;9.076;2023-02-15T00:39:25;100109.91;;;3.40;100.00
63715;BME280;49858;48.956;9.076;2023-02-15T00:41:53;100108.78;;;3.46;100.00
63715;BME280;49858;48.956;9.076;2023-02-15T00:44:21;100105.00;;;3.37;100.00
63715;BME280;49858;48.956;9.076;2023-02-15T00:46:49;100110.44;;;3.01;100.00
63715;BME280;49858;48.956;9.076;2023-02-15T00:49:17;100105.00;;;2.86;100.00
63715;BME280;49858;48.956;9.076;2023-02-15T00:51:45;100100.94;;;2.93;100.00
63715;BME280;49858;48.956;9.076;2023-02-15T00:54:14;100110.16;;;3.33;100.00
63715;BME280;49858;48.956;9.076;2023-02-15T00:56:42;100109.00;;;3.70;100.00
63715;BME280;49858;48.956;9.076;2023-02-15T00:59:09;100100.91;;;3.49;100.00
63715;BME280;49858;48.956;9.076;2023-02-15T01:01:37;100107.41;;;3.64;100.00
63715;BME280;49858;48.956;9.076;2023-02-15T01:04:05;100101.47;;;3.41;100.00
63715;BME280;49858;48.956;9.076;2023-02-15T01:06:33;100104.44;;;3.50;100.00
63715;BME280;49858;48.956;9.076;2023-02-15T01:09:02;100098.44;;;3.43;100.00
63715;BME280;49858;48.956;9.076;2023-02-15T01:11:31;100099.59;;;3.16;100.00
63715;BME280;49858;48.956;9.076;2023-02-15T01:13:59;100101.47;;;3.00;100.00
63715;BME280;49858;48.956;9.076;2023-02-15T01:16:28;100104.94;;;3.62;100.00
63715;BME280;49858;48.956;9.076;2023-02-15T01:18:57;100102.69;;;3.84;100.00
63715;BME280;49858;48.956;9.076;2023-02-15T01:21:26;100106.00;;;3.71;100.00
63715;BME280;49858;48.956;9.076;2023-02-15T01:23:53;100099.56;;;2.86;100.00
63715;BME280;49858;48.956;9.076;2023-02-15T01:26:21;100100.94;;;2.78;100.00
63715;BME280;49858;48.956;9.076;2023-02-15T01:28:50;100114.13;;;2.28;100.00
63715;BME280;49858;48.956;9.076;2023-02-15T01:31:20;100110.44;;;2.70;100.00
63715;BME280;49858;48.956;9.076;2023-02-15T01:33:48;100108.81;;;2.64;100.00
63715;BME280;49858;48.956;9.076;2023-02-15T01:36:16;100101.19;;;2.87;100.00
63715;BME280;49858;48.956;9.076;2023-02-15T01:38:44;100099.56;;;2.75;100.00
63715;BME280;49858;48.956;9.076;2023-02-15T01:41:12;100100.38;;;2.86;100.00
63715;BME280;49858;48.956;9.076;2023-02-15T01:43:56;100104.72;;;2.67;100.00
63715;BME280;49858;48.956;9.076;2023-02-15T01:46:28;100090.84;;;2.63;100.00
63715;BME280;49858;48.956;9.076;2023-02-15T01:49:02;100095.50;;;2.83;100.00
63715;BME280;49858;48.956;9.076;2023-02-15T01:51:33;100096.28;;;2.58;100.00
63715;BME280;49858;48.956;9.076;2023-02-15T01:54:05;100090.59;;;2.60;100.00
63715;BME280;49858;48.956;9.076;2023-02-15T01:56:36;100097.06;;;2.48;100.00
63715;BME280;49858;48.956;9.076;2023-02-15T01:59:09;100090.88;;;3.04;100.00
63715;BME280;49858;48.956;9.076;2023-02-15T02:01:40;100084.91;;;2.97;100.00
63715;BME280;49858;48.956;9.076;2023-02-15T02:04:12;100080.53;;;3.31;100.00
63715;BME280;49858;48.956;9.076;2023-02-15T02:06:44;100076.75;;;3.12;100.00
63715;BME280;49858;48.956;9.076;2023-02-15T02:09:14;100078.91;;;2.95;100.00
63715;BME280;49858;48.956;9.076;2023-02-15T02:11:44;100078.09;;;3.15;100.00
63715;BME280;49858;48.956;9.076;2023-02-15T02:14:15;100083.81;;;3.13;100.00
63715;BME280;49858;48.956;9.076;2023-02-15T02:16:48;100088.97;;;2.89;100.00
63715;BME280;49858;48.956;9.076;2023-02-15T02:19:44;100087.88;;;2.85;100.00
63715;BME280;49858;48.956;9.076;2023-02-15T02:22:46;100078.03;;;3.55;100.00
63715;BME280;49858;48.956;9.076;2023-02-15T02:25:47;100078.09;;;3.20;100.00
63715;BME280;49858;48.956;9.076;2023-02-15T02:28:33;100078.66;;;3.12;100.00
63715;BME280;49858;48.956;9.076;2023-02-15T02:31:22;100070.94;;;3.59;100.00
63715;BME280;49858;48.956;9.076;2023-02-15T02:34:01;100072.13;;;2.77;100.00
63715;BME280;49858;48.956;9.076;2023-02-15T02:36:39;100070.47;;;3.32;100.00
63715;BME280;49858;48.956;9.076;2023-02-15T02:39:23;100073.47;;;3.36;100.00
63715;BME280;49858;48.956;9.076;2023-02-15T02:42:01;100069.66;;;3.01;100.00
63715;BME280;49858;48.956;9.076;2023-02-15T02:44:39;100074.59;;;2.89;100.00
63715;BME280;49858;48.956;9.076;2023-02-15T02:47:13;100070.50;;;3.17;100.00
63715;BME280;49858;48.956;9.076;2023-02-15T02:49:46;100059.47;;;3.78;100.00
63715;BME280;49858;48.956;9.076;2023-02-15T02:52:38;100058.88;;;3.81;100.00
63715;BME280;49858;48.956;9.076;2023-02-15T02:55:11;100053.84;;;3.39;100.00
63715;BME280;49858;48.956;9.076;2023-02-15T02:57:46;100050.06;;;3.40;100.00
63715;BME280;49858;48.956;9.076;2023-02-15T03:00:16;100046.22;;;3.46;100.00
63715;BME280;49858;48.956;9.076;2023-02-15T03:02:46;100048.19;;;2.48;100.00
63715;BME280;49858;48.956;9.076;2023-02-15T03:05:20;100046.56;;;2.58;100.00
63715;BME280;49858;48.956;9.076;2023-02-15T03:07:51;100046.31;;;2.95;100.00
63715;BME280;49858;48.956;9.076;2023-02-15T03:10:23;100045.69;;;3.39;100.00
63715;BME280;49858;48.956;9.076;2023-02-15T03:12:52;100047.84;;;3.47;100.00
63715;BME280;49858;48.956;9.076;2023-02-15T03:15:22;100039.72;;;3.37;100.00
63715;BME280;49858;48.956;9.076;2023-02-15T03:17:56;100045.44;;;3.20;100.00
63715;BME280;49858;48.956;9.076;2023-02-15T03:20:30;100051.72;;;3.25;100.00
63715;BME280;49858;48.956;9.076;2023-02-15T03:23:02;100051.97;;;3.34;100.00
63715;BME280;49858;48.956;9.076;2023-02-15T03:25:34;100044.50;;;3.75;100.00
63715;BME280;49858;48.956;9.076;2023-02-15T03:28:07;100045.69;;;4.08;100.00
63715;BME280;49858;48.956;9.076;2023-02-15T03:30:38;100047.00;;;3.62;100.00
63715;BME280;49858;48.956;9.076;2023-02-15T03:33:08;100050.09;;;3.09;100.00
63715;BME280;49858;48.956;9.076;2023-02-15T03:35:44;100054.69;;;3.29;100.00
63715;BME280;49858;48.956;9.076;2023-02-15T03:38:19;100057.41;;;3.34;100.00
63715;BME280;49858;48.956;9.076;2023-02-15T03:40:50;100056.56;;;3.39;100.00
63715;BME280;49858;48.956;9.076;2023-02-15T03:43:43;100059.63;;;2.61;100.00
63715;BME280;49858;48.956;9.076;2023-02-15T03:46:19;100056.38;;;2.94;100.00
63715;BME280;49858;48.956;9.076;2023-02-15T03:48:52;100047.59;;;3.48;100.00
63715;BME280;49858;48.956;9.076;2023-02-15T03:51:26;100044.81;;;3.64;100.00
63715;BME280;49858;48.956;9.076;2023-02-15T03:54:03;100052.53;;;3.31;100.00
63715;BME280;49858;48.956;9.076;2023-02-15T03:56:33;100051.38;;;3.52;100.00
63715;BME280;49858;48.956;9.076;2023-02-15T03:59:02;100051.03;;;3.74;100.00
63715;BME280;49858;48.956;9.076;2023-02-15T04:01:55;100045.22;;;3.16;100.00
63715;BME280;49858;48.956;9.076;2023-02-15T04:04:32;100054.47;;;2.85;100.00
63715;BME280;49858;48.956;9.076;2023-02-15T04:07:02;100060.88;;;2.07;100.00
63715;BME280;49858;48.956;9.076;2023-02-15T04:09:30;100069.38;;;2.41;100.00
63715;BME280;49858;48.956;9.076;2023-02-15T04:12:16;100058.81;;;2.55;100.00
63715;BME280;49858;48.956;9.076;2023-02-15T04:14:43;100052.00;;;2.37;100.00
63715;BME280;49858;48.956;9.076;2023-02-15T04:17:29;100054.41;;;2.23;100.00
63715;BME280;49858;48.956;9.076;2023-02-15T04:19:57;100051.84;;;1.91;100.00
63715;BME280;49858;48.956;9.076;2023-02-15T04:22:43;100052.81;;;2.43;100.00
63715;BME280;49858;48.956;9.076;2023-02-15T04:25:29;100041.81;;;1.92;100.00
63715;BME280;49858;48.956;9.076;2023-02-15T04:27:56;100043.38;;;1.72;100.00
63715;BME280;49858;48.956;9.076;2023-02-15T04:30:25;100046.91;;;1.78;100.00
63715;BME280;49858;48.956;9.076;2023-02-15T04:32:54;100040.31;;;2.37;100.00
63715;BME280;49858;48.956;9.076;2023-02-15T04:35:23;100034.34;;;2.96;100.00
63715;BME280;49858;48.956;9.076;2023-02-15T04:37:53;100040.31;;;2.52;100.00
63715;BME280;49858;48.956;9.076;2023-02-15T04:40:22;100027.84;;;2.92;100.00
63715;BME280;49858;48.956;9.076;2023-02-15T04:42:50;100032.19;;;2.62;100.00
63715;BME280;49858;48.956;9.076;2023-02-15T04:45:17;100029.22;;;2.64;100.00
63715;BME280;49858;48.956;9.076;2023-02-15T04:47:45;100030.56;;;3.02;100.00
63715;BME280;49858;48.956;9.076;2023-02-15T04:50:13;100037.84;;;2.35;100.00
63715;BME280;49858;48.956;9.076;2023-02-15T04:52:41;100039.50;;;2.51;100.00
63715;BME280;49858;48.956;9.076;2023-02-15T04:55:10;100035.09;;;2.15;100.00
63715;BME280;49858;48.956;9.076;2023-02-15T04:57:37;100033.81;;;2.73;100.00
63715;BME280;49858;48.956;9.076;2023-02-15T05:00:06;100035.47;;;2.64;100.00
63715;BME280;49858;48.956;9.076;2023-02-15T05:02:35;100031.66;;;2.60;100.00
63715;BME280;49858;48.956;9.076;2023-02-15T05:05:04;100028.41;;;2.73;100.00
63715;BME280;49858;48.956;9.076;2023-02-15T05:07:31;100029.19;;;2.59;100.00
63715;BME280;49858;48.956;9.076;2023-02-15T05:09:59;100027.84;;;3.02;100.00
63715;BME280;49858;48.956;9.076;2023-02-15T05:12:28;100029.13;;;3.35;100.00
63715;BME280;49858;48.956;9.076;2023-02-15T05:14:56;100027.84;;;3.02;100.00
63715;BME280;49858;48.956;9.076;2023-02-15T05:17:24;100030.56;;;2.66;100.00
63715;BME280;49858;48.956;9.076;2023-02-15T05:19:54;100026.50;;;2.74;100.00
63715;BME280;49858;48.956;9.076;2023-02-15T05:22:21;100028.91;;;3.16;100.00
63715;BME280;49858;48.956;9.076;2023-02-15T05:24:49;100021.81;;;3.05;100.00
63715;BME280;49858;48.956;9.076;2023-02-15T05:27:36;100022.34;;;3.22;100.00
63715;BME280;49858;48.956;9.076;2023-02-15T05:30:21;100022.91;;;3.14;100.00
63715;BME280;49858;48.956;9.076;2023-02-15T05:32:49;100015.84;;;3.08;100.00
63715;BME280;49858;48.956;9.076;2023-02-15T05:35:17;100014.34;;;3.56;100.00
63715;BME280;49858;48.956;9.076;2023-02-15T05:37:45;100017.84;;;3.72;100.00
63715;BME280;49858;48.956;9.076;2023-02-15T05:40:13;100015.84;;;3.08;100.00
63715;BME280;49858;48.956;9.076;2023-02-15T05:42:42;100028.38;;;2.48;100.00
63715;BME280;49858;48.956;9.076;2023-02-15T05:45:10;100025.03;;;2.05;100.00
63715;BME280;49858;48.956;9.076;2023-02-15T05:47:37;100028.78;;;1.84;100.00
63715;BME280;49858;48.956;9.076;2023-02-15T05:50:06;100028.50;;;1.80;100.00
63715;BME280;49858;48.956;9.076;2023-02-15T05:52:34;100022.59;;;1.98;100.00
63715;BME280;49858;48.956;9.076;2023-02-15T05:55:03;100031.41;;;1.63;100.00
63715;BME280;49858;48.956;9.076;2023-02-15T05:57:31;100034.50;;;1.92;100.00
63715;BME280;49858;48.956;9.076;2023-02-15T06:00:00;100027.78;;;2.30;100.00
63715;BME280;49858;48.956;9.076;2023-02-15T06:02:37;100026.94;;;2.10;100.00
63715;BME280;49858;48.956;9.076;2023-02-15T06:05:06;100033.44;;;2.03;100.00
63715;BME280;49858;48.956;9.076;2023-02-15T06:07:34;100027.78;;;2.15;100.00
63715;BME280;49858;48.956;9.076;2023-02-15T06:10:02;100024.31;;;2.40;100.00
63715;BME280;49858;48.956;9.076;2023-02-15T06:12:30;100033.81;;;2.48;100.00
63715;BME280;49858;48.956;9.076;2023-02-15T06:15:02;100033.25;;;2.41;100.00
63715;BME280;49858;48.956;9.076;2023-02-15T06:17:30;100038.09;;;2.23;100.00
63715;BME280;49858;48.956;9.076;2023-02-15T06:19:57;100044.03;;;2.10;100.00
63715;BME280;49858;48.956;9.076;2023-02-15T06:22:25;100049.41;;;1.90;100.00
63715;BME280;49858;48.956;9.076;2023-02-15T06:24:54;100049.00;;;2.34;100.00
63715;BME280;49858;48.956;9.076;2023-02-15T06:27:21;100048.69;;;2.30;100.00
63715;BME280;49858;48.956;9.076;2023-02-15T06:29:49;100055.72;;;2.16;100.00
63715;BME280;49858;48.956;9.076;2023-02-15T06:32:18;100059.53;;;1.47;100.00
63715;BME280;49858;48.956;9.076;2023-02-15T06:34:46;100058.03;;;1.76;100.00
63715;BME280;49858;48.956;9.076;2023-02-15T06:37:14;100061.13;;;1.43;100.00
63715;BME280;49858;48.956;9.076;2023-02-15T06:39:42;100065.00;;;1.57;100.00
63715;BME280;49858;48.956;9.076;2023-02-15T06:42:10;100056.78;;;1.99;100.00
63715;BME280;49858;48.956;9.076;2023-02-15T06:44:38;100057.59;;;1.37;100.00
63715;BME280;49858;48.956;9.076;2023-02-15T06:47:05;100054.16;;;1.57;100.00
63715;BME280;49858;48.956;9.076;2023-02-15T06:49:37;100057.72;;;1.68;100.00
63715;BME280;49858;48.956;9.076;2023-02-15T06:52:05;100061.88;;;1.81;100.00
63715;BME280;49858;48.956;9.076;2023-02-15T06:54:33;100070.66;;;2.13;100.00
63715;BME280;49858;48.956;9.076;2023-02-15T06:57:01;100063.97;;;1.68;100.00
63715;BME280;49858;48.956;9.076;2023-02-15T06:59:28;100067.03;;;1.92;100.00
63715;BME280;49858;48.956;9.076;2023-02-15T07:01:56;100071.78;;;2.22;100.00
63715;BME280;49858;48.956;9.076;2023-02-15T07:04:25;100071.53;;;2.39;100.00
63715;BME280;49858;48.956;9.076;2023-02-15T07:06:56;100067.47;;;2.47;100.00
63715;BME280;49858;48.956;9.076;2023-02-15T07:09:24;100083.94;;;1.47;100.00
63715;BME280;49858;48.956;9.076;2023-02-15T07:11:52;100078.66;;;1.77;100.00
63715;BME280;49858;48.956;9.076;2023-02-15T07:14:38;100081.59;;;2.54;100.00
63715;BME280;49858;48.956;9.076;2023-02-15T07:17:07;100086.66;;;2.10;100.00
63715;BME280;49858;48.956;9.076;2023-02-15T07:19:54;100082.81;;;1.43;100.00
63715;BME280;49858;48.956;9.076;2023-02-15T07:22:23;100084.34;;;1.71;100.00
63715;BME280;49858;48.956;9.076;2023-02-15T07:24:51;100082.44;;;1.71;100.00
63715;BME280;49858;48.956;9.076;2023-02-15T07:27:21;100079.28;;;1.95;100.00
63715;BME280;49858;48.956;9.076;2023-02-15T07:29:48;100077.66;;;1.94;100.00
63715;BME280;49858;48.956;9.076;2023-02-15T07:32:16;100074.72;;;2.16;100.00
63715;BME280;49858;48.956;9.076;2023-02-15T07:34:44;100070.19;;;1.69;100.00
63715;BME280;49858;48.956;9.076;2023-02-15T07:37:12;100070.53;;;1.77;100.00
63715;BME280;49858;48.956;9.076;2023-02-15T07:39:41;100086.97;;;1.56;100.00
63715;BME280;49858;48.956;9.076;2023-02-15T07:42:09;100083.44;;;2.18;100.00
63715;BME280;49858;48.956;9.076;2023-02-15T07:44:37;100075.63;;;2.57;100.00
63715;BME280;49858;48.956;9.076;2023-02-15T07:47:05;100072.59;;;2.28;100.00
63715;BME280;49858;48.956;9.076;2023-02-15T07:49:33;100075.03;;;2.29;100.00
63715;BME280;49858;48.956;9.076;2023-02-15T07:52:00;100070.13;;;2.16;100.00
63715;BME280;49858;48.956;9.076;2023-02-15T07:54:28;100081.44;;;1.93;100.00
63715;BME280;49858;48.956;9.076;2023-02-15T07:56:58;100080.72;;;2.13;100.00
63715;BME280;49858;48.956;9.076;2023-02-15T07:59:25;100085.25;;;2.02;100.00
63715;BME280;49858;48.956;9.076;2023-02-15T08:01:53;100081.34;;;2.40;100.00
63715;BME280;49858;48.956;9.076;2023-02-15T08:04:23;100083.47;;;1.60;100.00
63715;BME280;49858;48.956;9.076;2023-02-15T08:06:52;100084.47;;;2.07;100.00
63715;BME280;49858;48.956;9.076;2023-02-15T08:09:20;100083.59;;;1.91;100.00
63715;BME280;49858;48.956;9.076;2023-02-15T08:11:49;100088.84;;;0.75;100.00
63715;BME280;49858;48.956;9.076;2023-02-15T08:14:20;100085.16;;;1.71;100.00
63715;BME280;49858;48.956;9.076;2023-02-15T08:16:49;100075.03;;;2.24;100.00
63715;BME280;49858;48.956;9.076;2023-02-15T08:19:19;100082.69;;;1.65;100.00
63715;BME280;49858;48.956;9.076;2023-02-15T08:21:48;100083.34;;;1.92;100.00
63715;BME280;49858;48.956;9.076;2023-02-15T08:24:18;100087.44;;;2.00;100.00
63715;BME280;49858;48.956;9.076;2023-02-15T08:26:47;100076.72;;;2.61;100.00
63715;BME280;49858;48.956;9.076;2023-02-15T08:29:18;100073.19;;;3.27;100.00
63715;BME280;49858;48.956;9.076;2023-02-15T08:31:46;100075.38;;;3.30;100.00
63715;BME280;49858;48.956;9.076;2023-02-15T08:34:17;100076.47;;;2.68;100.00
63715;BME280;49858;48.956;9.076;2023-02-15T08:36:45;100074.56;;;3.04;100.00
63715;BME280;49858;48.956;9.076;2023-02-15T08:39:14;100067.78;;;2.86;100.00
63715;BME280;49858;48.956;9.076;2023-02-15T08:41:43;100072.94;;;3.03;100.00
63715;BME280;49858;48.956;9.076;2023-02-15T08:44:12;100058.56;;;2.97;100.00
63715;BME280;49858;48.956;9.076;2023-02-15T08:46:42;100057.44;;;2.42;100.00
63715;BME280;49858;48.956;9.076;2023-02-15T08:49:13;100053.75;;;1.86;100.00
63715;BME280;49858;48.956;9.076;2023-02-15T08:51:42;100065.28;;;2.44;100.00
63715;BME280;49858;48.956;9.076;2023-02-15T08:54:12;100060.19;;;2.83;100.00
63715;BME280;49858;48.956;9.076;2023-02-15T08:56:42;100061.53;;;2.65;100.00
63715;BME280;49858;48.956;9.076;2023-02-15T08:59:13;100057.44;;;2.47;100.00
63715;BME280;49858;48.956;9.076;2023-02-15T09:01:44;100057.16;;;3.10;100.00
63715;BME280;49858;48.956;9.076;2023-02-15T09:04:12;100055.25;;;3.31;100.00
63715;BME280;49858;48.956;9.076;2023-02-15T09:06:42;100050.09;;;3.04;100.00
63715;BME280;49858;48.956;9.076;2023-02-15T09:09:14;100057.72;;;2.81;100.00
63715;BME280;49858;48.956;9.076;2023-02-15T09:11:44;100061.22;;;2.36;100.00
63715;BME280;49858;48.956;9.076;2023-02-15T09:14:14;100058.81;;;2.65;100.00
63715;BME280;49858;48.956;9.076;2023-02-15T09:16:45;100055.53;;;3.29;100.00
63715;BME280;49858;48.956;9.076;2023-02-15T09:19:15;100055.41;;;3.65;100.00
63715;BME280;49858;48.956;9.076;2023-02-15T09:21:44;100037.88;;;3.12;100.00
63715;BME280;49858;48.956;9.076;2023-02-15T09:24:13;100047.34;;;3.35;100.00
63715;BME280;49858;48.956;9.076;2023-02-15T09:26:43;100040.25;;;3.44;100.00
63715;BME280;49858;48.956;9.076;2023-02-15T09:29:12;100034.78;;;3.54;100.00
63715;BME280;49858;48.956;9.076;2023-02-15T09:31:41;100026.44;;;3.15;100.00
63715;BME280;49858;48.956;9.076;2023-02-15T09:34:16;100033.81;;;2.78;100.00
63715;BME280;49858;48.956;9.076;2023-02-15T09:36:44;100023.09;;;3.43;100.00
63715;BME280;49858;48.956;9.076;2023-02-15T09:39:15;100031.84;;;3.35;100.00
63715;BME280;49858;48.956;9.076;2023-02-15T09:44:58;100021.56;;;3.12;100.00
63715;BME280;49858;48.956;9.076;2023-02-15T09:47:42;100019.28;;;3.49;100.00
63715;BME280;49858;48.956;9.076;2023-02-15T09:50:17;100021.25;;;3.28;100.00
63715;BME280;49858;48.956;9.076;2023-02-15T09:53:01;100024.84;;;3.89;100.00
63715;BME280;49858;48.956;9.076;2023-02-15T09:55:40;100022.41;;;3.87;100.00
63715;BME280;49858;48.956;9.076;2023-02-15T09:58:19;100020.59;;;3.62;100.00
63715;BME280;49858;48.956;9.076;2023-02-15T10:00:54;100021.00;;;3.15;100.00
63715;BME280;49858;48.956;9.076;2023-02-15T10:03:35;100011.22;;;3.89;100.00
63715;BME280;49858;48.956;9.076;2023-02-15T10:06:26;100016.41;;;4.34;100.00
63715;BME280;49858;48.956;9.076;2023-02-15T10:09:08;100014.13;;;4.52;100.00
63715;BME280;49858;48.956;9.076;2023-02-15T10:11:56;100005.13;;;3.52;100.00
63715;BME280;49858;48.956;9.076;2023-02-15T10:14:43;100022.13;;;3.89;100.00
63715;BME280;49858;48.956;9.076;2023-02-15T10:17:25;100019.41;;;2.88;100.00
63715;BME280;49858;48.956;9.076;2023-02-15T10:20:06;100017.97;;;3.31;100.00
63715;BME280;49858;48.956;9.076;2023-02-15T10:22:58;100016.69;;;3.83;100.00
63715;BME280;49858;48.956;9.076;2023-02-15T10:25:34;100027.59;;;3.83;100.00
63715;BME280;49858;48.956;9.076;2023-02-15T10:28:06;100020.47;;;4.37;100.00
63715;BME280;49858;48.956;9.076;2023-02-15T10:30:41;100014.25;;;3.87;100.00
63715;BME280;49858;48.956;9.076;2023-02-15T10:33:20;100014.72;;;3.99;100.00
63715;BME280;49858;48.956;9.076;2023-02-15T10:36:03;100008.09;;;4.55;100.00
63715;BME280;49858;48.956;9.076;2023-02-15T10:38:38;100014.72;;;4.78;100.00
63715;BME280;49858;48.956;9.076;2023-02-15T10:41:19;100004.72;;;4.34;100.00
63715;BME280;49858;48.956;9.076;2023-02-15T10:44:03;100005.84;;;4.96;100.00
63715;BME280;49858;48.956;9.076;2023-02-15T10:49:46;100001.69;;;4.70;100.00
63715;BME280;49858;48.956;9.076;2023-02-15T10:52:25;99993.53;;;5.28;100.00
63715;BME280;49858;48.956;9.076;2023-02-15T10:55:05;99999.50;;;5.30;100.00
63715;BME280;49858;48.956;9.076;2023-02-15T10:57:43;99989.19;;;5.51;100.00
63715;BME280;49858;48.956;9.076;2023-02-15T11:00:20;99982.97;;;5.64;100.00
63715;BME280;49858;48.956;9.076;2023-02-15T11:03:04;99993.59;;;2.80;100.00
63715;BME280;49858;48.956;9.076;2023-02-15T11:05:42;99993.63;;;2.65;100.00
63715;BME280;49858;48.956;9.076;2023-02-15T11:08:16;99996.84;;;3.03;100.00
63715;BME280;49858;48.956;9.076;2023-02-15T11:10:48;99995.81;;;4.18;100.00
63715;BME280;49858;48.956;9.076;2023-02-15T11:13:19;99974.31;;;5.14;100.00
63715;BME280;49858;48.956;9.076;2023-02-15T11:15:52;99982.03;;;4.44;100.00
63715;BME280;49858;48.956;9.076;2023-02-15T11:18:26;99977.47;;;3.90;100.00
63715;BME280;49858;48.956;9.076;2023-02-15T11:20:59;99966.59;;;3.20;100.00
63715;BME280;49858;48.956;9.076;2023-02-15T11:23:30;99971.72;;;4.70;100.00
63715;BME280;49858;48.956;9.076;2023-02-15T11:26:04;99974.19;;;5.24;100.00
63715;BME280;49858;48.956;9.076;2023-02-15T11:28:34;99970.44;;;5.63;100.00
63715;BME280;49858;48.956;9.076;2023-02-15T11:31:13;99984.66;;;4.54;100.00
63715;BME280;49858;48.956;9.076;2023-02-15T11:33:46;99977.78;;;5.44;100.00
63715;BME280;49858;48.956;9.076;2023-02-15T11:36:17;99967.63;;;5.49;100.00
63715;BME280;49858;48.956;9.076;2023-02-15T11:38:49;99968.00;;;6.23;100.00
63715;BME280;49858;48.956;9.076;2023-02-15T11:41:22;99965.19;;;5.90;100.00
63715;BME280;49858;48.956;9.076;2023-02-15T11:43:57;99969.09;;;5.18;100.00
63715;BME280;49858;48.956;9.076;2023-02-15T11:46:29;99965.59;;;4.54;100.00
63715;BME280;49858;48.956;9.076;2023-02-15T11:48:57;99970.72;;;3.12;100.00
63715;BME280;49858;48.956;9.076;2023-02-15T11:51:25;99973.53;;;2.41;100.00
63715;BME280;49858;48.956;9.076;2023-02-15T11:53:56;99976.75;;;2.38;100.00
63715;BME280;49858;48.956;9.076;2023-02-15T11:56:25;99965.81;;;3.14;100.00
63715;BME280;49858;48.956;9.076;2023-02-15T11:58:55;99970.56;;;3.58;100.00
63715;BME280;49858;48.956;9.076;2023-02-15T12:01:30;99949.91;;;4.99;100.00
63715;BME280;49858;48.956;9.076;2023-02-15T12:04:02;99941.66;;;5.95;100.00
63715;BME280;49858;48.956;9.076;2023-02-15T12:06:34;99945.09;;;5.38;100.00
63715;BME280;49858;48.956;9.076;2023-02-15T12:09:10;99943.13;;;5.20;100.00
63715;BME280;49858;48.956;9.076;2023-02-15T12:11:43;99925.16;;;6.70;100.00
63715;BME280;49858;48.956;9.076;2023-02-15T12:14:12;99929.75;;;6.88;100.00
63715;BME280;49858;48.956;9.076;2023-02-15T12:16:44;99925.88;;;6.76;100.00
63715;BME280;49858;48.956;9.076;2023-02-15T12:19:25;99920.03;;;7.51;100.00
63715;BME280;49858;48.956;9.076;2023-02-15T12:21:56;99928.81;;;7.62;100.00
63715;BME280;49858;48.956;9.076;2023-02-15T12:24:28;99925.50;;;8.37;100.00
63715;BME280;49858;48.956;9.076;2023-02-15T12:27:00;99918.88;;;9.89;100.00
63715;BME280;49858;48.956;9.076;2023-02-15T12:29:30;99913.09;;;11.66;100.00
63715;BME280;49858;48.956;9.076;2023-02-15T12:32:01;99914.84;;;12.21;100.00
63715;BME280;49858;48.956;9.076;2023-02-15T12:34:32;99921.50;;;11.99;98.74
63715;BME280;49858;48.956;9.076;2023-02-15T12:37:10;99906.97;;;11.90;98.70
63715;BME280;49858;48.956;9.076;2023-02-15T12:39:52;99910.00;;;11.38;100.00
63715;BME280;49858;48.956;9.076;2023-02-15T12:42:22;99907.06;;;11.72;100.00
63715;BME280;49858;48.956;9.076;2023-02-15T12:44:59;99900.66;;;12.10;100.00
63715;BME280;49858;48.956;9.076;2023-02-15T12:47:27;99902.28;;;13.23;93.21
63715;BME280;49858;48.956;9.076;2023-02-15T12:50:13;99883.75;;;14.28;86.14
63715;BME280;49858;48.956;9.076;2023-02-15T12:52:45;99883.00;;;14.72;83.99
63715;BME280;49858;48.956;9.076;2023-02-15T12:55:21;99882.94;;;14.84;85.02
63715;BME280;49858;48.956;9.076;2023-02-15T12:58:05;99874.84;;;15.58;79.03
63715;BME280;49858;48.956;9.076;2023-02-15T13:00:33;99862.03;;;15.02;78.38
63715;BME280;49858;48.956;9.076;2023-02-15T13:03:01;99862.94;;;15.57;77.73
63715;BME280;49858;48.956;9.076;2023-02-15T13:05:32;99865.81;;;14.50;85.60
63715;BME280;49858;48.956;9.076;2023-02-15T13:08:04;99856.09;;;14.72;84.27
63715;BME280;49858;48.956;9.076;2023-02-15T13:10:40;99850.97;;;15.89;75.81
63715;BME280;49858;48.956;9.076;2023-02-15T13:13:18;99853.88;;;14.78;81.67
63715;BME280;49858;48.956;9.076;2023-02-15T13:15:50;99859.00;;;12.24;99.92
63715;BME280;49858;48.956;9.076;2023-02-15T13:18:25;99842.88;;;11.21;100.00
63715;BME280;49858;48.956;9.076;2023-02-15T13:20:53;99840.03;;;11.39;100.00
63715;BME280;49858;48.956;9.076;2023-02-15T13:23:26;99830.03;;;13.61;94.76
63715;BME280;49858;48.956;9.076;2023-02-15T13:25:57;99826.91;;;14.31;89.80